Time;durP1;ratioP1;P1;durP2;ratioP2;P2;SDS_P1;SDS_P2;PMS_P1;PMS_P2;Temp;Humidity;BMP_temperature;BMP_pressure;BME280_temperature;BME280_humidity;BME280_pressure;Samples;Min_cycle;Max_cycle;Signal;HPM_P1;HPM_P2
2023/06/29 00:00:22;;;;;;;3.00;2.78;;;23.50;59.60;;;;;;5095086;28;20185;-71
2023/06/29 00:02:52;;;;;;;3.78;2.80;;;23.50;59.50;;;;;;5090504;28;20205;-71
2023/06/29 00:05:21;;;;;;;2.88;2.60;;;23.50;59.50;;;;;;5092436;28;20272;-71
2023/06/29 00:07:48;;;;;;;2.63;2.42;;;23.50;59.60;;;;;;5082255;28;20185;-71
2023/06/29 00:10:14;;;;;;;2.85;2.55;;;23.50;59.60;;;;;;5108302;28;20185;-71
2023/06/29 00:12:43;;;;;;;3.92;2.78;;;23.50;59.50;;;;;;5098809;28;20224;-71
2023/06/29 00:15:09;;;;;;;3.10;2.40;;;23.50;59.50;;;;;;5099010;28;20184;-71
2023/06/29 00:17:35;;;;;;;2.75;2.50;;;23.50;59.60;;;;;;5102462;28;20271;-70
2023/06/29 00:20:05;;;;;;;3.83;2.60;;;23.50;60.30;;;;;;5075316;28;20272;-71
2023/06/29 00:22:31;;;;;;;2.60;2.40;;;23.50;59.70;;;;;;5083345;28;20221;-72
2023/06/29 00:24:59;;;;;;;2.90;2.60;;;23.50;59.60;;;;;;5099557;28;20242;-72
2023/06/29 00:27:25;;;;;;;2.95;2.60;;;23.50;59.70;;;;;;5099227;28;20199;-71
2023/06/29 00:29:51;;;;;;;2.75;2.38;;;23.40;59.50;;;;;;5070278;28;20271;-71
2023/06/29 00:32:16;;;;;;;2.75;2.55;;;23.40;59.60;;;;;;5095319;28;20632;-71
2023/06/29 00:34:44;;;;;;;2.72;2.53;;;23.40;59.60;;;;;;5101579;28;20233;-71
2023/06/29 00:37:10;;;;;;;2.85;2.65;;;23.50;59.70;;;;;;5102833;28;20181;-72
2023/06/29 00:39:36;;;;;;;3.92;2.80;;;23.50;59.60;;;;;;5081498;28;20199;-71
2023/06/29 00:42:02;;;;;;;2.55;2.35;;;23.40;59.60;;;;;;5085071;28;20193;-71
2023/06/29 00:44:28;;;;;;;2.70;2.50;;;23.50;59.70;;;;;;5104233;28;20223;-72
2023/06/29 00:46:54;;;;;;;3.00;2.60;;;23.50;59.70;;;;;;5073798;28;20212;-71
2023/06/29 00:49:21;;;;;;;2.75;2.30;;;23.50;59.70;;;;;;5081871;28;20185;-71
2023/06/29 00:51:53;;;;;;;3.05;2.40;;;23.40;59.60;;;;;;5075984;28;20228;-71
2023/06/29 00:54:22;;;;;;;3.38;2.50;;;23.50;59.70;;;;;;5111741;27;20326;-71
2023/06/29 00:56:48;;;;;;;2.60;2.40;;;23.40;59.60;;;;;;5089541;28;20180;-71
2023/06/29 00:59:14;;;;;;;2.83;2.50;;;23.40;59.60;;;;;;5082106;28;20177;-70
2023/06/29 01:01:43;;;;;;;2.92;2.63;;;23.40;60.30;;;;;;5111782;27;20671;-71
2023/06/29 01:04:24;;;;;;;2.55;2.35;;;23.40;59.60;;;;;;5090253;28;20205;-70
2023/06/29 01:07:07;;;;;;;2.67;2.47;;;23.40;59.60;;;;;;5090370;28;20549;-70
2023/06/29 01:09:34;;;;;;;2.63;2.40;;;23.40;59.70;;;;;;5083051;28;20196;-70
2023/06/29 01:12:03;;;;;;;2.40;2.20;;;23.40;59.70;;;;;;5114503;27;20204;-70
2023/06/29 01:14:33;;;;;;;2.72;2.53;;;23.40;59.60;;;;;;5089824;28;20213;-70
2023/06/29 01:17:01;;;;;;;2.70;2.50;;;23.40;59.70;;;;;;5073488;28;20207;-70
2023/06/29 01:19:30;;;;;;;2.40;2.30;;;23.40;59.60;;;;;;5098338;28;20180;-70
2023/06/29 01:22:13;;;;;;;2.30;2.10;;;23.40;59.60;;;;;;5069649;28;20201;-71
2023/06/29 01:24:42;;;;;;;2.08;1.92;;;23.40;59.70;;;;;;5088345;28;20191;-71
2023/06/29 01:27:12;;;;;;;2.55;2.35;;;23.40;59.70;;;;;;5073581;28;20196;-70
2023/06/29 01:29:39;;;;;;;2.53;2.33;;;23.40;59.60;;;;;;5090386;28;20185;-71
2023/06/29 01:32:07;;;;;;;3.03;2.67;;;23.30;59.60;;;;;;5073088;28;20216;-70
2023/06/29 01:34:36;;;;;;;2.33;2.13;;;23.40;59.70;;;;;;5095528;28;20683;-71
2023/06/29 01:37:18;;;;;;;2.88;2.50;;;23.40;59.70;;;;;;5089942;28;20191;-70
2023/06/29 01:39:54;;;;;;;2.58;2.22;;;23.40;59.70;;;;;;5107180;28;20190;-70
2023/06/29 01:42:25;;;;;;;2.80;2.15;;;23.30;59.60;;;;;;5080903;28;20212;-71
2023/06/29 01:44:54;;;;;;;2.50;2.17;;;23.30;59.60;;;;;;5073244;28;20708;-71
2023/06/29 01:47:21;;;;;;;2.50;2.30;;;23.30;59.60;;;;;;5073162;28;20177;-71
2023/06/29 01:49:48;;;;;;;2.60;2.40;;;23.30;59.60;;;;;;5080230;28;20217;-71
2023/06/29 01:52:16;;;;;;;2.30;2.10;;;23.40;59.70;;;;;;5072193;28;20211;-71
2023/06/29 01:54:42;;;;;;;2.30;2.10;;;23.40;59.70;;;;;;5092113;28;20268;-71
2023/06/29 01:57:08;;;;;;;2.50;2.30;;;23.30;59.60;;;;;;5079674;28;20272;-71
2023/06/29 01:59:35;;;;;;;2.40;2.20;;;23.30;59.60;;;;;;5073157;28;20212;-71
2023/06/29 02:02:02;;;;;;;2.75;2.22;;;23.40;59.70;;;;;;5083999;28;20207;-71
2023/06/29 02:04:31;;;;;;;2.67;2.35;;;23.40;59.70;;;;;;5105558;28;20181;-71
2023/06/29 02:06:57;;;;;;;2.40;2.20;;;23.30;59.60;;;;;;5072998;28;20181;-70
2023/06/29 02:09:23;;;;;;;2.70;2.50;;;23.30;59.60;;;;;;5076383;28;20434;-70
2023/06/29 02:11:49;;;;;;;2.58;2.38;;;23.30;59.60;;;;;;5093749;28;20212;-70
2023/06/29 02:14:18;;;;;;;2.08;1.98;;;23.30;59.60;;;;;;5076148;28;20557;-71
2023/06/29 02:16:47;;;;;;;2.33;2.08;;;23.30;59.60;;;;;;5093558;28;20191;-70
2023/06/29 02:19:13;;;;;;;2.78;2.50;;;23.30;59.60;;;;;;5093376;28;20177;-70
2023/06/29 02:21:39;;;;;;;2.40;2.20;;;23.40;59.70;;;;;;5076216;28;20187;-70
2023/06/29 02:24:05;;;;;;;2.53;2.33;;;23.30;59.60;;;;;;5093023;28;20189;-70
2023/06/29 02:26:31;;;;;;;2.67;2.40;;;23.30;59.60;;;;;;5072680;28;20189;-71
2023/06/29 02:28:57;;;;;;;3.28;2.38;;;23.30;59.60;;;;;;5094313;28;20188;-70
2023/06/29 02:31:23;;;;;;;2.40;2.20;;;23.30;59.60;;;;;;5093313;28;20241;-70
2023/06/29 02:33:50;;;;;;;3.40;2.50;;;23.40;59.70;;;;;;5108289;28;20210;-70
2023/06/29 02:36:18;;;;;;;2.47;2.28;;;23.30;59.60;;;;;;5106953;28;20639;-70
2023/06/29 02:38:44;;;;;;;2.65;2.40;;;23.30;59.60;;;;;;5090958;28;20210;-70
2023/06/29 02:41:10;;;;;;;2.35;2.10;;;23.30;59.60;;;;;;5105749;28;20214;-70
2023/06/29 02:43:36;;;;;;;2.33;2.00;;;23.30;59.60;;;;;;5089788;28;20216;-71
2023/06/29 02:46:02;;;;;;;2.40;1.98;;;23.30;59.60;;;;;;5076438;28;20185;-73
2023/06/29 02:48:31;;;;;;;2.40;2.20;;;23.30;59.60;;;;;;5106629;28;20185;-73
2023/06/29 02:50:57;;;;;;;2.08;1.98;;;23.30;59.60;;;;;;5076342;28;20181;-73
2023/06/29 02:53:23;;;;;;;2.58;2.38;;;23.30;59.60;;;;;;5075472;28;20215;-73
2023/06/29 02:55:49;;;;;;;2.10;1.98;;;23.30;59.60;;;;;;5084683;28;20189;-73
2023/06/29 02:58:15;;;;;;;2.00;1.90;;;23.30;59.60;;;;;;5075777;28;20230;-73
2023/06/29 03:00:41;;;;;;;2.47;2.28;;;23.30;59.60;;;;;;5092966;28;20185;-73
2023/06/29 03:03:07;;;;;;;2.60;2.40;;;23.30;59.60;;;;;;5072032;28;20201;-73
2023/06/29 03:05:32;;;;;;;2.50;2.30;;;23.30;59.60;;;;;;5106260;28;20193;-74
2023/06/29 03:07:58;;;;;;;2.38;2.17;;;23.30;59.60;;;;;;5064963;28;20276;-73
2023/06/29 03:10:24;;;;;;;2.03;1.83;;;23.30;59.60;;;;;;5071344;28;20189;-72
2023/06/29 03:12:50;;;;;;;2.15;2.03;;;23.30;59.60;;;;;;5091806;28;20220;-72
2023/06/29 03:15:16;;;;;;;1.85;1.75;;;23.30;59.60;;;;;;5075166;28;20184;-73
2023/06/29 03:17:41;;;;;;;2.58;2.40;;;23.30;59.60;;;;;;5076905;28;20177;-73
2023/06/29 03:20:08;;;;;;;2.33;2.10;;;23.30;59.60;;;;;;5124527;27;20177;-73
2023/06/29 03:22:34;;;;;;;2.20;2.00;;;23.30;59.60;;;;;;5074915;28;20579;-72
2023/06/29 03:24:59;;;;;;;2.65;2.30;;;23.20;59.50;;;;;;5084097;28;20210;-73
2023/06/29 03:27:25;;;;;;;2.30;2.10;;;23.20;59.50;;;;;;5083810;28;20237;-73
2023/06/29 03:29:55;;;;;;;1.90;1.80;;;23.20;59.50;;;;;;5092465;28;20193;-73
2023/06/29 03:32:21;;;;;;;2.40;2.20;;;23.20;59.50;;;;;;5090987;28;20216;-73
2023/06/29 03:34:47;;;;;;;2.28;2.08;;;23.20;59.50;;;;;;5083749;28;20176;-73
2023/06/29 03:37:12;;;;;;;2.30;2.20;;;23.20;59.50;;;;;;5075360;28;20184;-71
2023/06/29 03:39:38;;;;;;;2.35;2.15;;;23.20;59.50;;;;;;5074473;28;20192;-71
2023/06/29 03:42:06;;;;;;;2.15;1.98;;;23.30;59.60;;;;;;5092498;28;20213;-71
2023/06/29 03:44:31;;;;;;;2.10;2.00;;;23.20;59.60;;;;;;5108653;28;20195;-71
2023/06/29 03:46:57;;;;;;;2.20;2.00;;;23.20;59.50;;;;;;5108075;28;20191;-71
2023/06/29 03:49:23;;;;;;;2.03;1.90;;;23.20;59.50;;;;;;5103634;28;20558;-71
2023/06/29 03:51:48;;;;;;;2.10;2.00;;;23.20;59.50;;;;;;5083747;28;20234;-71
2023/06/29 03:54:14;;;;;;;2.20;2.00;;;23.20;59.60;;;;;;5080165;28;20219;-74
2023/06/29 03:56:40;;;;;;;1.98;1.80;;;23.20;59.50;;;;;;5087601;28;20184;-71
2023/06/29 03:59:06;;;;;;;2.17;1.98;;;23.20;59.60;;;;;;5083013;28;20188;-71
2023/06/29 04:01:32;;;;;;;2.20;2.10;;;23.20;60.20;;;;;;5075362;28;20181;-71
2023/06/29 04:03:57;;;;;;;2.15;1.95;;;23.20;59.60;;;;;;5082640;28;20627;-72
2023/06/29 04:06:23;;;;;;;2.08;1.98;;;23.20;59.50;;;;;;5093428;28;20189;-71
2023/06/29 04:08:49;;;;;;;2.20;2.00;;;23.20;59.60;;;;;;5075757;28;20189;-71
2023/06/29 04:11:15;;;;;;;2.20;2.00;;;23.20;59.60;;;;;;5093078;28;20189;-71
2023/06/29 04:13:40;;;;;;;2.20;2.00;;;23.20;59.60;;;;;;5093926;28;20220;-71
2023/06/29 04:16:06;;;;;;;2.10;2.00;;;23.20;59.60;;;;;;5100375;28;20177;-72
2023/06/29 04:18:34;;;;;;;1.90;1.80;;;23.20;59.60;;;;;;5091871;28;20189;-72
2023/06/29 04:21:00;;;;;;;2.17;2.00;;;23.20;59.60;;;;;;5093292;28;20181;-72
2023/06/29 04:23:26;;;;;;;1.98;1.88;;;23.20;59.50;;;;;;5074431;28;20254;-72
2023/06/29 04:25:52;;;;;;;1.83;1.73;;;23.20;59.60;;;;;;5091787;28;20216;-72
2023/06/29 04:28:17;;;;;;;2.33;2.13;;;23.20;59.60;;;;;;5091613;28;20181;-72
2023/06/29 04:30:44;;;;;;;2.05;1.92;;;23.20;59.60;;;;;;5091506;28;20630;-72
2023/06/29 04:33:10;;;;;;;1.90;1.80;;;23.20;59.60;;;;;;5069191;28;20232;-71
2023/06/29 04:35:43;;;;;;;1.98;1.88;;;23.10;59.50;;;;;;5074443;28;20192;-71
2023/06/29 04:38:10;;;;;;;1.98;1.88;;;23.20;59.60;;;;;;5084560;28;20185;-72
2023/06/29 04:40:40;;;;;;;1.73;1.63;;;23.20;59.60;;;;;;5090724;28;20185;-71
2023/06/29 04:43:06;;;;;;;2.58;1.88;;;23.20;59.60;;;;;;5090789;28;20208;-72
2023/06/29 04:45:33;;;;;;;1.90;1.80;;;23.10;59.60;;;;;;5090285;28;20189;-71
2023/06/29 04:48:00;;;;;;;2.08;1.92;;;23.20;59.70;;;;;;5090866;28;20212;-71
2023/06/29 04:50:31;;;;;;;2.20;2.05;;;23.10;59.60;;;;;;5089634;28;20184;-71
2023/06/29 04:52:59;;;;;;;2.10;2.00;;;23.20;59.70;;;;;;5090340;28;20251;-71
2023/06/29 04:55:25;;;;;;;1.98;1.88;;;23.20;59.70;;;;;;5074186;28;20185;-71
2023/06/29 04:57:52;;;;;;;1.92;1.83;;;23.10;59.60;;;;;;5072221;28;20190;-72
2023/06/29 05:00:19;;;;;;;2.05;1.90;;;23.20;59.70;;;;;;5091031;28;20184;-72
2023/06/29 05:02:45;;;;;;;2.00;1.90;;;23.20;59.70;;;;;;5073179;28;20209;-72
2023/06/29 05:05:11;;;;;;;1.75;1.65;;;23.20;59.70;;;;;;5087014;28;20190;-71
2023/06/29 05:07:37;;;;;;;1.83;1.73;;;23.20;59.70;;;;;;5090560;28;20646;-72
2023/06/29 05:10:05;;;;;;;2.05;1.85;;;23.10;59.60;;;;;;5091521;28;20181;-72
2023/06/29 05:12:31;;;;;;;2.03;1.92;;;23.20;59.60;;;;;;5088269;28;20213;-72
2023/06/29 05:14:57;;;;;;;2.53;2.03;;;23.20;59.70;;;;;;5089984;28;20272;-72
2023/06/29 05:17:23;;;;;;;1.88;1.77;;;23.20;59.60;;;;;;5083157;28;20273;-72
2023/06/29 05:19:48;;;;;;;2.05;1.95;;;23.20;59.70;;;;;;5067114;28;20326;-72
2023/06/29 05:22:14;;;;;;;1.95;1.85;;;23.20;59.70;;;;;;5073712;28;20270;-72
2023/06/29 05:24:43;;;;;;;1.88;1.77;;;23.20;59.80;;;;;;5095560;28;20220;-72
2023/06/29 05:27:09;;;;;;;1.92;1.80;;;23.20;59.80;;;;;;5090074;28;20184;-73
2023/06/29 05:29:37;;;;;;;2.05;1.95;;;23.20;59.80;;;;;;5092122;28;20193;-72
2023/06/29 05:32:04;;;;;;;2.05;1.95;;;23.10;59.70;;;;;;5080247;28;20204;-73
2023/06/29 05:34:30;;;;;;;1.92;1.83;;;23.20;59.80;;;;;;5072517;28;20220;-73
2023/06/29 05:36:56;;;;;;;1.80;1.70;;;23.20;59.80;;;;;;5088333;28;20193;-73
2023/06/29 05:39:21;;;;;;;1.90;1.80;;;23.20;59.80;;;;;;5072888;28;20272;-72
2023/06/29 05:41:48;;;;;;;1.88;1.77;;;23.20;59.80;;;;;;5098329;28;20184;-73
2023/06/29 05:44:14;;;;;;;1.88;1.77;;;23.20;59.90;;;;;;5104410;28;20195;-72
2023/06/29 05:46:40;;;;;;;5.00;1.80;;;23.20;59.80;;;;;;5088821;28;20188;-72
2023/06/29 05:49:05;;;;;;;2.00;1.90;;;23.20;59.80;;;;;;5106926;28;20189;-72
2023/06/29 05:51:33;;;;;;;1.90;1.80;;;23.20;59.90;;;;;;5084484;28;20259;-72
2023/06/29 05:53:58;;;;;;;1.73;1.63;;;23.20;59.90;;;;;;5091483;28;20595;-73
2023/06/29 05:56:24;;;;;;;2.20;2.00;;;23.20;59.90;;;;;;5094578;28;20192;-73
2023/06/29 05:58:50;;;;;;;3.15;1.83;;;23.20;59.90;;;;;;5109914;27;20187;-73
2023/06/29 06:01:15;;;;;;;2.30;1.95;;;23.20;59.90;;;;;;5111993;27;20191;-73
2023/06/29 06:03:41;;;;;;;1.90;1.80;;;23.20;59.90;;;;;;5107058;28;20204;-73
2023/06/29 06:06:08;;;;;;;2.15;2.03;;;23.20;59.90;;;;;;5075607;28;20715;-73
2023/06/29 06:08:34;;;;;;;2.00;1.90;;;23.20;59.90;;;;;;5092655;28;20196;-73
2023/06/29 06:11:01;;;;;;;1.80;1.70;;;23.20;59.90;;;;;;5100407;28;20195;-73
2023/06/29 06:13:27;;;;;;;2.25;1.70;;;23.20;59.90;;;;;;5092939;28;20208;-73
2023/06/29 06:15:52;;;;;;;1.88;1.77;;;23.20;59.90;;;;;;5077625;28;20370;-72
2023/06/29 06:18:18;;;;;;;2.15;1.90;;;23.20;59.90;;;;;;5121925;27;20223;-72
2023/06/29 06:20:44;;;;;;;2.30;1.95;;;23.20;59.90;;;;;;5079290;28;20189;-72
2023/06/29 06:23:09;;;;;;;2.47;1.60;;;23.20;59.90;;;;;;5114229;27;20201;-73
2023/06/29 06:25:35;;;;;;;1.90;1.80;;;23.20;59.90;;;;;;5087708;28;20221;-72
2023/06/29 06:28:01;;;;;;;2.00;1.90;;;23.20;59.90;;;;;;5111116;27;20670;-72
2023/06/29 06:30:27;;;;;;;2.92;2.25;;;23.20;59.90;;;;;;5099365;28;20188;-73
2023/06/29 06:32:52;;;;;;;2.53;2.33;;;23.20;60.00;;;;;;5100279;28;20264;-73
2023/06/29 06:35:18;;;;;;;2.50;1.70;;;23.20;59.90;;;;;;5075971;28;20185;-73
2023/06/29 06:37:45;;;;;;;1.90;1.80;;;23.20;59.90;;;;;;5091025;28;20198;-71
2023/06/29 06:40:11;;;;;;;1.75;1.65;;;23.20;59.80;;;;;;5089729;28;20189;-71
2023/06/29 06:42:39;;;;;;;2.40;2.17;;;23.20;59.90;;;;;;5099861;28;20236;-71
2023/06/29 06:45:06;;;;;;;2.28;1.83;;;23.20;59.80;;;;;;5110273;27;20191;-71
2023/06/29 06:47:36;;;;;;;1.77;1.67;;;23.20;59.60;;;;;;5099185;28;20216;-71
2023/06/29 06:50:03;;;;;;;2.30;2.10;;;23.30;59.80;;;;;;5090063;28;20196;-71
2023/06/29 06:52:29;;;;;;;2.17;1.98;;;23.20;59.70;;;;;;5089431;28;20192;-71
2023/06/29 06:54:59;;;;;;;3.20;2.00;;;23.30;59.80;;;;;;5103616;27;20193;-71
2023/06/29 06:57:25;;;;;;;2.13;1.90;;;23.30;59.80;;;;;;5080947;28;20188;-71
2023/06/29 06:59:51;;;;;;;1.65;1.55;;;23.20;59.70;;;;;;5112626;28;20184;-71
2023/06/29 07:02:17;;;;;;;2.03;1.92;;;23.30;59.80;;;;;;5099894;28;20196;-69
2023/06/29 07:04:43;;;;;;;2.60;2.35;;;23.20;59.60;;;;;;5078688;28;20193;-71
2023/06/29 07:07:09;;;;;;;2.30;2.10;;;23.30;59.60;;;;;;5083662;28;20188;-71
2023/06/29 07:09:35;;;;;;;2.78;2.50;;;23.30;59.60;;;;;;5092782;28;20193;-71
2023/06/29 07:12:01;;;;;;;3.75;2.60;;;23.30;59.70;;;;;;5100573;28;20294;-70
2023/06/29 07:14:27;;;;;;;3.50;2.63;;;23.30;59.70;;;;;;5089714;28;20298;-70
2023/06/29 07:16:54;;;;;;;3.47;2.85;;;23.30;59.60;;;;;;5113131;27;20188;-71
2023/06/29 07:19:20;;;;;;;2.83;2.63;;;23.30;59.70;;;;;;5120788;27;20198;-71
2023/06/29 07:21:46;;;;;;;3.80;3.00;;;23.30;60.00;;;;;;5078050;28;20189;-71
2023/06/29 07:24:12;;;;;;;4.05;3.65;;;23.30;59.70;;;;;;5083169;28;20181;-71
2023/06/29 07:26:38;;;;;;;5.78;5.15;;;23.30;60.60;;;;;;5095543;28;20234;-71
2023/06/29 07:29:05;;;;;;;6.78;6.05;;;23.30;59.70;;;;;;5110162;27;20275;-70
2023/06/29 07:31:31;;;;;;;7.70;6.95;;;23.30;59.70;;;;;;5076177;28;20181;-71
2023/06/29 07:33:57;;;;;;;9.02;7.82;;;23.30;59.60;;;;;;5082863;28;20653;-71
2023/06/29 07:36:25;;;;;;;10.35;7.55;;;23.30;59.60;;;;;;5092787;28;20200;-71
2023/06/29 07:38:52;;;;;;;9.52;8.52;;;23.40;60.40;;;;;;5091790;28;20211;-71
2023/06/29 07:41:18;;;;;;;8.98;8.07;;;23.30;59.80;;;;;;5102114;28;20173;-71
2023/06/29 07:43:51;;;;;;;9.68;8.68;;;23.30;59.80;;;;;;5082416;28;20419;-70
2023/06/29 07:46:18;;;;;;;9.05;7.85;;;23.40;59.70;;;;;;5071840;28;20233;-71
2023/06/29 07:48:43;;;;;;;10.52;8.38;;;23.30;59.60;;;;;;5095992;28;20188;-71
2023/06/29 07:51:10;;;;;;;8.68;7.75;;;23.40;59.70;;;;;;5080681;28;20218;-70
2023/06/29 07:53:36;;;;;;;10.20;8.52;;;23.40;59.70;;;;;;5099548;28;20224;-71
2023/06/29 07:56:02;;;;;;;10.90;7.95;;;23.40;59.70;;;;;;5109863;28;20184;-71
2023/06/29 07:58:27;;;;;;;10.02;8.23;;;23.40;59.70;;;;;;5098102;28;20186;-71
2023/06/29 08:00:54;;;;;;;10.05;8.40;;;23.40;59.70;;;;;;5098151;28;20177;-71
2023/06/29 08:03:21;;;;;;;8.40;7.03;;;23.40;59.70;;;;;;5092419;28;20291;-71
2023/06/29 08:05:47;;;;;;;10.05;7.85;;;23.40;59.70;;;;;;5098977;28;20245;-71
2023/06/29 08:08:13;;;;;;;9.25;7.18;;;23.40;60.40;;;;;;5092830;28;20185;-70
2023/06/29 08:10:40;;;;;;;8.43;7.30;;;23.40;59.70;;;;;;5092999;28;20199;-71
2023/06/29 08:13:06;;;;;;;8.18;6.75;;;23.40;59.80;;;;;;5090867;28;20244;-71
2023/06/29 08:15:32;;;;;;;10.00;6.97;;;23.40;59.80;;;;;;5094407;28;20220;-71
2023/06/29 08:17:58;;;;;;;8.18;6.55;;;23.40;59.70;;;;;;5123815;27;20184;-70
2023/06/29 08:20:24;;;;;;;8.63;6.75;;;23.40;59.70;;;;;;5080563;28;20185;-71
2023/06/29 08:22:50;;;;;;;9.57;6.35;;;23.50;59.80;;;;;;5079138;28;20239;-71
2023/06/29 08:25:16;;;;;;;9.55;7.18;;;23.40;59.80;;;;;;5074869;28;20180;-71
2023/06/29 08:27:42;;;;;;;9.48;7.22;;;23.40;59.70;;;;;;5085734;28;20184;-71
2023/06/29 08:30:11;;;;;;;9.43;5.93;;;23.50;59.70;;;;;;5101749;28;20271;-72
2023/06/29 08:32:37;;;;;;;9.88;6.60;;;23.50;59.70;;;;;;5113092;27;20251;-71
2023/06/29 08:35:03;;;;;;;7.85;6.03;;;23.50;59.60;;;;;;5086381;28;20574;-70
2023/06/29 08:37:29;;;;;;;8.48;6.32;;;23.50;59.70;;;;;;5096002;28;20187;-71
2023/06/29 08:39:56;;;;;;;9.20;6.75;;;23.50;59.70;;;;;;5110961;27;20185;-71
2023/06/29 08:42:23;;;;;;;8.35;5.70;;;23.50;59.60;;;;;;5081699;28;20584;-71
2023/06/29 08:44:50;;;;;;;8.27;5.32;;;23.60;59.70;;;;;;5099788;28;20196;-71
2023/06/29 08:47:16;;;;;;;8.68;6.00;;;23.60;59.80;;;;;;5099281;28;20178;-72
2023/06/29 08:49:45;;;;;;;8.93;5.90;;;23.60;59.80;;;;;;5097146;28;20245;-71
2023/06/29 08:52:17;;;;;;;8.80;5.60;;;23.60;59.80;;;;;;5097793;28;20632;-72
2023/06/29 08:54:44;;;;;;;8.90;6.15;;;23.60;59.80;;;;;;5090287;28;20231;-72
2023/06/29 08:57:10;;;;;;;8.98;5.78;;;23.60;59.80;;;;;;5100760;28;20193;-71
2023/06/29 08:59:40;;;;;;;8.63;6.28;;;23.60;59.80;;;;;;5095788;28;20635;-71
2023/06/29 09:02:06;;;;;;;7.75;5.63;;;23.60;59.80;;;;;;5099310;28;20231;-72
2023/06/29 09:04:32;;;;;;;8.45;5.90;;;23.60;59.80;;;;;;5106081;28;20192;-72
2023/06/29 09:06:58;;;;;;;8.18;5.68;;;23.60;59.80;;;;;;5081159;28;20184;-72
2023/06/29 09:09:24;;;;;;;7.47;5.82;;;23.60;59.80;;;;;;5081301;28;20192;-71
2023/06/29 09:11:51;;;;;;;8.23;5.88;;;23.60;59.80;;;;;;5086387;28;20217;-71
2023/06/29 09:14:17;;;;;;;7.75;5.93;;;23.60;59.80;;;;;;5100582;28;20212;-72
2023/06/29 09:17:01;;;;;;;8.88;5.85;;;23.60;59.80;;;;;;5100893;28;20275;-72
2023/06/29 09:19:29;;;;;;;11.15;6.13;;;23.60;59.80;;;;;;5100833;28;20195;-72
2023/06/29 09:21:57;;;;;;;8.18;5.40;;;23.60;59.90;;;;;;5107302;27;20209;-71
2023/06/29 09:24:29;;;;;;;9.18;6.03;;;23.70;60.00;;;;;;5097312;28;20226;-71
2023/06/29 09:26:55;;;;;;;9.52;5.20;;;23.70;60.00;;;;;;5090586;28;20192;-71
2023/06/29 09:29:22;;;;;;;9.23;5.20;;;23.70;59.90;;;;;;5076237;28;20180;-71
2023/06/29 09:31:58;;;;;;;7.57;4.80;;;23.60;59.90;;;;;;5077049;28;20181;-72
2023/06/29 09:34:26;;;;;;;8.20;4.75;;;23.60;59.90;;;;;;5088059;28;20223;-72
2023/06/29 09:36:54;;;;;;;6.13;4.75;;;23.60;59.90;;;;;;5065915;28;20181;-72
2023/06/29 09:39:21;;;;;;;6.25;4.40;;;23.60;59.90;;;;;;5089374;28;20192;-71
2023/06/29 09:41:56;;;;;;;6.65;4.82;;;23.60;59.90;;;;;;5072713;28;20188;-72
2023/06/29 09:44:26;;;;;;;7.43;5.22;;;23.60;60.00;;;;;;5097939;28;20197;-71
2023/06/29 09:47:06;;;;;;;6.93;4.90;;;23.60;59.90;;;;;;5072146;28;20700;-71
2023/06/29 09:49:48;;;;;;;6.68;4.88;;;23.60;59.90;;;;;;5081488;28;20204;-71
2023/06/29 09:52:15;;;;;;;6.93;4.80;;;23.60;60.00;;;;;;5081180;28;20209;-71
2023/06/29 09:54:42;;;;;;;7.60;4.65;;;23.60;60.20;;;;;;5083363;28;20422;-71
2023/06/29 09:57:10;;;;;;;6.80;4.55;;;23.70;60.00;;;;;;5072050;28;20700;-72
2023/06/29 09:59:41;;;;;;;6.93;4.53;;;23.60;60.10;;;;;;5084701;28;20280;-72
2023/06/29 10:02:12;;;;;;;5.85;4.22;;;23.60;60.10;;;;;;5084136;28;20747;-71
2023/06/29 10:04:41;;;;;;;5.78;4.40;;;23.60;60.10;;;;;;5075817;28;20193;-71
2023/06/29 10:07:18;;;;;;;4.85;3.70;;;23.70;60.30;;;;;;5079153;28;20196;-71
2023/06/29 10:09:48;;;;;;;6.93;4.45;;;23.70;60.30;;;;;;5084625;28;20193;-71
2023/06/29 10:12:15;;;;;;;4.65;3.58;;;23.70;60.20;;;;;;5082167;28;20224;-71
2023/06/29 10:14:46;;;;;;;7.03;5.07;;;23.70;60.40;;;;;;5085196;28;20201;-71
2023/06/29 10:17:40;;;;;;;32.17;21.55;;;23.70;60.40;;;;;;5082116;28;20189;-71
2023/06/29 10:20:07;;;;;;;229.93;149.73;;;23.70;60.40;;;;;;5062644;28;20200;-70
2023/06/29 10:22:36;;;;;;;19.85;13.55;;;23.70;60.30;;;;;;5086525;28;20227;-71
2023/06/29 10:25:10;;;;;;;83.40;54.47;;;23.70;60.50;;;;;;5071990;28;20213;-71
2023/06/29 10:27:39;;;;;;;61.10;40.10;;;23.70;60.50;;;;;;5088599;28;20189;-70
2023/06/29 10:30:06;;;;;;;54.35;36.10;;;23.70;60.40;;;;;;5074717;28;20199;-71
2023/06/29 10:32:37;;;;;;;92.35;61.03;;;23.70;60.30;;;;;;5091208;28;20591;-72
2023/06/29 10:35:08;;;;;;;155.10;108.05;;;23.70;60.40;;;;;;5090077;28;20245;-70
2023/06/29 10:37:41;;;;;;;163.23;115.35;;;23.70;60.30;;;;;;5098230;28;20668;-71
2023/06/29 10:40:22;;;;;;;181.18;127.47;;;23.70;60.50;;;;;;5083888;28;20189;-71
2023/06/29 10:42:50;;;;;;;289.30;209.65;;;23.70;60.30;;;;;;5089730;28;20251;-71
2023/06/29 10:45:19;;;;;;;448.52;343.00;;;23.70;60.20;;;;;;5088712;28;20186;-71
2023/06/29 10:47:59;;;;;;;211.43;143.48;;;23.70;60.20;;;;;;5087311;28;20216;-70
2023/06/29 10:50:36;;;;;;;307.73;221.55;;;23.80;60.20;;;;;;5070839;28;20186;-71
2023/06/29 10:53:05;;;;;;;229.85;157.75;;;23.80;60.20;;;;;;5070469;28;20219;-71
2023/06/29 10:55:50;;;;;;;347.77;258.63;;;23.70;60.30;;;;;;5077563;28;20189;-71
2023/06/29 10:58:21;;;;;;;277.20;197.15;;;23.70;60.30;;;;;;5074037;28;20665;-71
2023/06/29 11:00:51;;;;;;;261.95;193.07;;;23.70;60.40;;;;;;5078411;28;20192;-71
2023/06/29 11:03:19;;;;;;;277.80;203.50;;;23.70;60.30;;;;;;5082332;28;20212;-71
2023/06/29 11:05:54;;;;;;;261.88;189.15;;;23.70;60.30;;;;;;5080354;28;20209;-71
2023/06/29 11:08:21;;;;;;;310.73;233.15;;;23.70;60.20;;;;;;5090130;28;20184;-71
2023/06/29 11:10:47;;;;;;;330.90;256.85;;;23.80;60.50;;;;;;5083243;28;20204;-71
2023/06/29 11:13:13;;;;;;;319.75;247.93;;;23.70;60.40;;;;;;5088923;28;20217;-71
2023/06/29 11:15:40;;;;;;;322.05;246.55;;;23.70;60.30;;;;;;5090633;28;20189;-70
2023/06/29 11:18:09;;;;;;;275.00;198.38;;;23.70;60.30;;;;;;5071988;28;20217;-70
2023/06/29 11:20:39;;;;;;;320.20;239.68;;;23.70;60.40;;;;;;5065298;28;20200;-70
2023/06/29 11:23:07;;;;;;;277.50;207.25;;;23.80;60.60;;;;;;5089210;28;20205;-71
2023/06/29 11:25:36;;;;;;;278.05;204.07;;;23.80;60.50;;;;;;5074028;28;20253;-71
2023/06/29 11:28:02;;;;;;;258.02;191.98;;;23.70;60.30;;;;;;5074562;28;20543;-70
2023/06/29 11:30:28;;;;;;;276.95;208.02;;;23.80;60.50;;;;;;5071974;28;20612;-71
2023/06/29 11:32:54;;;;;;;256.02;184.35;;;23.70;60.30;;;;;;5085759;28;20209;-71
2023/06/29 11:35:22;;;;;;;247.63;180.10;;;23.70;60.20;;;;;;5099710;28;20676;-71
2023/06/29 11:37:57;;;;;;;243.90;180.52;;;23.70;60.20;;;;;;5094510;28;20203;-71
2023/06/29 11:40:24;;;;;;;229.80;163.23;;;23.70;60.10;;;;;;5100216;28;20184;-71
2023/06/29 11:42:51;;;;;;;234.45;173.13;;;23.70;60.30;;;;;;5075099;28;20225;-71
2023/06/29 11:45:18;;;;;;;236.68;169.88;;;23.80;60.20;;;;;;5075542;28;20189;-71
2023/06/29 11:47:49;;;;;;;244.68;176.35;;;23.80;60.30;;;;;;5075465;28;20189;-71
2023/06/29 11:50:15;;;;;;;229.65;167.98;;;23.80;60.30;;;;;;5083254;28;20278;-72
2023/06/29 11:52:44;;;;;;;231.13;163.35;;;23.80;60.00;;;;;;5102982;28;20208;-71
2023/06/29 11:55:15;;;;;;;223.75;165.27;;;23.80;60.20;;;;;;5077365;28;20200;-71
2023/06/29 11:57:47;;;;;;;238.25;168.13;;;23.80;60.00;;;;;;5101634;28;20636;-71
2023/06/29 12:00:16;;;;;;;204.70;151.07;;;23.80;60.20;;;;;;5073580;28;20185;-72
2023/06/29 12:02:44;;;;;;;208.02;152.85;;;23.80;60.10;;;;;;5099659;28;20228;-71
2023/06/29 12:05:10;;;;;;;209.70;149.23;;;23.80;60.20;;;;;;5091916;28;20246;-71
2023/06/29 12:07:38;;;;;;;218.13;154.88;;;23.80;60.00;;;;;;5098379;28;20197;-71
2023/06/29 12:10:12;;;;;;;206.13;148.85;;;23.80;60.10;;;;;;5082682;28;20195;-70
2023/06/29 12:12:44;;;;;;;193.05;139.25;;;23.80;60.00;;;;;;5066554;28;20302;-71
2023/06/29 12:15:16;;;;;;;179.07;135.02;;;23.80;59.80;;;;;;5066029;28;20185;-71
2023/06/29 12:17:44;;;;;;;190.45;139.40;;;23.80;60.30;;;;;;5099490;28;20234;-72
2023/06/29 12:20:21;;;;;;;178.30;134.73;;;23.80;60.10;;;;;;5090471;28;20657;-71
2023/06/29 12:22:55;;;;;;;183.70;137.32;;;23.80;60.00;;;;;;5091317;28;20200;-70
2023/06/29 12:25:22;;;;;;;203.18;144.25;;;23.80;60.10;;;;;;5097877;28;20201;-71
2023/06/29 12:27:50;;;;;;;183.63;133.98;;;23.80;60.00;;;;;;5105254;28;20184;-71
2023/06/29 12:30:20;;;;;;;160.73;122.22;;;23.80;59.90;;;;;;5086180;28;20180;-71
2023/06/29 12:32:48;;;;;;;170.55;127.70;;;23.80;59.90;;;;;;5094283;28;20240;-71
2023/06/29 12:35:16;;;;;;;158.93;118.78;;;23.80;59.90;;;;;;5094975;28;20636;-71
2023/06/29 12:37:42;;;;;;;167.38;124.03;;;23.80;60.00;;;;;;5073237;28;20276;-71
2023/06/29 12:40:09;;;;;;;150.38;112.68;;;23.90;60.10;;;;;;5084518;28;20207;-71